Time;durP1;ratioP1;P1;durP2;ratioP2;P2;SDS_P1;SDS_P2;PMS_P1;PMS_P2;Temp;Humidity;BMP_temperature;BMP_pressure;BME280_temperature;BME280_humidity;BME280_pressure;Samples;Min_cycle;Max_cycle;Signal;HPM_P1;HPM_P2
2021/03/02 00:01:18;;;;;;;10.20;5.88;;;;;;;6.43;61.22;101915.19;5009250;28;20069;-69
2021/03/02 00:03:44;;;;;;;11.50;5.95;;;;;;;6.40;61.58;101910.09;5009202;28;20038;-69
2021/03/02 00:06:09;;;;;;;12.38;5.70;;;;;;;6.44;61.36;101909.84;5009389;28;20030;-70
2021/03/02 00:08:36;;;;;;;9.30;5.57;;;;;;;6.52;61.09;101907.59;5010697;28;20030;-69
2021/03/02 00:11:03;;;;;;;8.88;5.07;;;;;;;6.59;60.85;101913.34;5009202;28;20057;-69
2021/03/02 00:13:29;;;;;;;8.88;5.72;;;;;;;6.65;60.58;101922.63;5007809;28;20495;-69
2021/03/02 00:16:03;;;;;;;9.13;5.30;;;;;;;6.69;60.61;101919.72;5008053;28;20034;-69
2021/03/02 00:18:36;;;;;;;7.82;4.60;;;;;;;6.62;60.69;101913.13;5008449;28;20421;-69
2021/03/02 00:21:07;;;;;;;10.10;5.53;;;;;;;6.68;60.49;101918.03;5008424;28;20034;-70
2021/03/02 00:23:38;;;;;;;9.48;5.32;;;;;;;6.77;60.13;101921.91;5007815;28;20034;-69
2021/03/02 00:26:06;;;;;;;9.73;5.45;;;;;;;6.78;60.06;101913.91;5008724;28;20052;-69
2021/03/02 00:28:33;;;;;;;9.70;5.28;;;;;;;6.83;59.72;101908.38;4993163;28;20030;-70
2021/03/02 00:30:59;;;;;;;8.65;5.07;;;;;;;6.84;59.81;101910.09;5013213;28;20037;-69
2021/03/02 00:33:27;;;;;;;9.60;5.18;;;;;;;6.81;59.95;101910.25;5013672;28;20133;-69
2021/03/02 00:35:53;;;;;;;8.98;5.20;;;;;;;6.76;60.04;101914.94;5011815;28;20374;-69
2021/03/02 00:38:18;;;;;;;7.68;4.82;;;;;;;6.94;59.46;101905.09;5011815;28;20061;-69
2021/03/02 00:40:43;;;;;;;10.63;5.10;;;;;;;6.96;59.33;101905.81;5011918;28;20132;-69
2021/03/02 00:43:09;;;;;;;10.40;5.22;;;;;;;6.88;59.56;101905.47;5012981;28;20093;-69
2021/03/02 00:45:34;;;;;;;9.85;5.55;;;;;;;6.86;59.57;101910.81;5012831;28;20300;-70
2021/03/02 00:48:00;;;;;;;13.60;6.10;;;;;;;6.85;59.60;101905.66;5012565;28;20065;-70
2021/03/02 00:50:27;;;;;;;7.50;4.90;;;;;;;6.58;60.62;101906.41;5011728;28;20113;-69
2021/03/02 00:52:53;;;;;;;8.35;4.78;;;;;;;6.47;60.74;101912.28;5012656;28;20057;-69
2021/03/02 00:55:18;;;;;;;9.88;4.97;;;;;;;6.44;60.83;101912.47;5012313;28;20033;-69
2021/03/02 00:57:44;;;;;;;8.38;4.80;;;;;;;6.30;61.73;101908.03;5010878;28;20100;-69
2021/03/02 01:00:10;;;;;;;6.82;4.05;;;;;;;6.24;61.49;101913.63;5011754;28;20068;-69
2021/03/02 01:02:36;;;;;;;6.03;3.60;;;;;;;6.15;61.47;101919.44;5010018;28;20038;-69
2021/03/02 01:05:03;;;;;;;6.47;3.88;;;;;;;6.06;61.72;101915.56;5012304;28;20030;-69
2021/03/02 01:07:28;;;;;;;7.05;4.30;;;;;;;5.95;62.03;101920.56;5011916;28;20486;-69
2021/03/02 01:09:54;;;;;;;8.38;4.65;;;;;;;5.83;62.92;101918.59;5011528;28;20080;-69
2021/03/02 01:12:25;;;;;;;8.75;4.40;;;;;;;5.88;62.53;101924.44;5011455;28;20042;-69
2021/03/02 01:14:51;;;;;;;8.68;4.85;;;;;;;5.84;62.63;101912.41;5010863;28;20117;-69
2021/03/02 01:17:16;;;;;;;9.88;4.93;;;;;;;5.78;62.74;101910.16;5012198;28;20125;-69
2021/03/02 01:19:41;;;;;;;7.60;4.38;;;;;;;5.69;62.92;101901.84;5011980;28;20037;-69
2021/03/02 01:22:06;;;;;;;8.63;4.43;;;;;;;5.72;63.04;101904.31;5009679;28;20141;-69
2021/03/02 01:24:32;;;;;;;7.70;4.40;;;;;;;5.70;63.29;101897.47;5011680;28;20064;-70
2021/03/02 01:26:57;;;;;;;7.28;4.13;;;;;;;5.73;63.14;101892.88;5011446;28;20062;-69
2021/03/02 01:29:22;;;;;;;7.32;4.22;;;;;;;5.73;63.40;101895.50;5011361;28;20041;-69
2021/03/02 01:31:47;;;;;;;7.60;4.60;;;;;;;5.78;63.25;101894.41;5010794;28;20053;-69
2021/03/02 01:34:13;;;;;;;11.30;5.15;;;;;;;5.89;62.59;101884.16;5014580;28;20125;-70
2021/03/02 01:36:38;;;;;;;8.23;4.50;;;;;;;5.93;62.57;101889.13;5011373;28;20030;-69
2021/03/02 01:39:03;;;;;;;9.57;3.60;;;;;;;5.85;63.01;101895.75;5003023;28;20038;-69
2021/03/02 01:41:29;;;;;;;5.43;3.40;;;;;;;5.72;63.26;101893.81;5008302;28;20038;-69
2021/03/02 01:43:54;;;;;;;6.25;3.45;;;;;;;5.59;63.86;101890.19;5011935;28;20092;-69
2021/03/02 01:46:19;;;;;;;5.38;3.38;;;;;;;5.57;63.96;101892.03;5010530;28;20103;-69
2021/03/02 01:48:46;;;;;;;8.45;4.20;;;;;;;5.61;63.70;101892.72;5011526;28;20038;-69
2021/03/02 01:51:11;;;;;;;6.82;3.70;;;;;;;5.56;63.99;101898.22;5012264;28;20034;-69
2021/03/02 01:53:36;;;;;;;7.15;3.65;;;;;;;5.53;64.00;101904.50;5011476;28;20040;-69
2021/03/02 01:56:03;;;;;;;6.32;3.13;;;;;;;5.55;63.89;101899.16;5011182;28;20037;-69
2021/03/02 01:58:29;;;;;;;6.47;2.90;;;;;;;5.52;64.77;101908.03;5011104;28;20034;-69
2021/03/02 02:01:00;;;;;;;7.07;3.92;;;;;;;5.45;64.57;101909.31;5003561;28;20128;-69
2021/03/02 02:03:38;;;;;;;8.55;4.22;;;;;;;5.48;64.57;101906.53;5010644;28;20682;-69
2021/03/02 02:06:12;;;;;;;5.75;3.42;;;;;;;5.56;64.29;101900.84;5010990;28;20048;-70
2021/03/02 02:08:47;;;;;;;6.13;3.80;;;;;;;5.71;63.50;101893.91;5009019;28;20049;-69
2021/03/02 02:11:22;;;;;;;6.78;4.13;;;;;;;5.78;63.55;101902.28;5002783;28;20069;-69
2021/03/02 02:14:01;;;;;;;6.60;3.85;;;;;;;5.90;63.07;101901.56;5010533;28;20057;-69
2021/03/02 02:16:27;;;;;;;7.60;4.47;;;;;;;6.07;63.00;101898.00;5010663;28;20030;-69
2021/03/02 02:18:53;;;;;;;9.02;4.57;;;;;;;6.19;62.32;101906.97;5010135;28;20056;-69
2021/03/02 02:21:29;;;;;;;8.40;4.43;;;;;;;6.31;61.74;101901.81;5009998;28;20568;-69
2021/03/02 02:24:07;;;;;;;7.70;4.28;;;;;;;6.37;61.53;101905.88;5010112;28;20034;-69
2021/03/02 02:26:59;;;;;;;6.10;3.83;;;;;;;6.37;61.74;101901.47;5010285;28;20088;-70
2021/03/02 02:29:33;;;;;;;8.60;4.35;;;;;;;6.48;61.11;101900.81;5007546;28;20049;-70
2021/03/02 02:32:01;;;;;;;7.50;3.92;;;;;;;6.39;61.31;101901.38;5009649;28;20034;-69
2021/03/02 02:34:30;;;;;;;6.88;3.60;;;;;;;6.32;61.41;101893.03;5016769;28;20204;-71
2021/03/02 02:36:59;;;;;;;6.18;3.60;;;;;;;6.23;61.83;101895.34;5010393;28;20036;-70
2021/03/02 02:39:27;;;;;;;7.22;4.30;;;;;;;6.16;61.94;101890.44;5009885;28;20065;-70
2021/03/02 02:41:53;;;;;;;5.95;3.58;;;;;;;6.14;61.96;101888.84;4993212;28;20458;-70
2021/03/02 02:44:20;;;;;;;6.63;4.00;;;;;;;6.17;62.13;101891.28;5008788;28;20061;-69
2021/03/02 02:46:47;;;;;;;7.18;4.00;;;;;;;6.25;61.88;101894.31;5010168;28;20121;-69
2021/03/02 02:49:13;;;;;;;7.18;3.85;;;;;;;6.35;61.48;101894.63;5010513;28;20510;-69
2021/03/02 02:51:39;;;;;;;8.73;4.57;;;;;;;6.49;61.35;101896.44;5008140;28;20041;-70
2021/03/02 02:54:07;;;;;;;8.45;4.57;;;;;;;6.61;60.82;101893.06;5009609;28;20081;-71
2021/03/02 02:56:36;;;;;;;7.10;4.10;;;;;;;6.62;60.51;101892.09;5010136;28;20029;-70
2021/03/02 02:59:24;;;;;;;7.03;4.15;;;;;;;6.54;60.90;101884.69;5009934;28;20034;-70
2021/03/02 03:01:56;;;;;;;7.22;4.30;;;;;;;6.49;60.90;101884.13;5010060;28;20603;-70
2021/03/02 03:04:27;;;;;;;7.05;4.32;;;;;;;6.44;61.08;101887.97;5008677;28;20046;-70
2021/03/02 03:06:57;;;;;;;7.47;4.22;;;;;;;6.39;61.37;101880.38;5009970;28;20034;-70
2021/03/02 03:09:23;;;;;;;8.48;5.15;;;;;;;6.28;61.42;101881.00;5009385;28;20053;-70
2021/03/02 03:12:00;;;;;;;6.53;4.20;;;;;;;6.23;61.84;101883.06;5010149;28;20218;-70
2021/03/02 03:14:27;;;;;;;7.60;3.90;;;;;;;6.26;62.08;101884.66;5009244;28;20049;-70
2021/03/02 03:16:55;;;;;;;9.00;5.15;;;;;;;6.38;61.83;101889.16;5009131;28;20034;-70
2021/03/02 03:19:25;;;;;;;9.52;4.57;;;;;;;6.48;61.57;101898.19;5009555;28;20121;-70
2021/03/02 03:21:52;;;;;;;9.07;4.97;;;;;;;6.38;61.90;101894.44;5009956;28;20655;-70
2021/03/02 03:24:19;;;;;;;6.43;3.55;;;;;;;6.24;62.11;101897.84;5009066;28;20100;-70
2021/03/02 03:26:46;;;;;;;8.90;4.47;;;;;;;6.22;62.19;101905.00;5007937;28;20030;-70
2021/03/02 03:29:12;;;;;;;6.03;3.20;;;;;;;6.01;62.51;101895.75;5008384;28;20026;-70
2021/03/02 03:31:38;;;;;;;7.47;4.10;;;;;;;5.92;62.86;101904.97;5008837;28;20352;-69
2021/03/02 03:34:04;;;;;;;6.65;3.97;;;;;;;5.79;62.88;101903.94;5009247;28;20566;-69
2021/03/02 03:36:31;;;;;;;6.00;3.63;;;;;;;5.66;63.31;101902.03;5004273;28;20044;-69
2021/03/02 03:38:57;;;;;;;7.43;3.85;;;;;;;5.54;63.16;101902.72;5009711;28;20037;-69
2021/03/02 03:41:23;;;;;;;7.88;4.38;;;;;;;5.33;63.56;101905.56;5009942;28;20038;-69
2021/03/02 03:43:48;;;;;;;9.00;4.35;;;;;;;5.17;64.12;101904.72;5009027;28;20038;-69
2021/03/02 03:46:13;;;;;;;6.55;3.88;;;;;;;4.86;64.84;101909.00;5008586;28;20498;-69
2021/03/02 03:48:39;;;;;;;5.20;3.33;;;;;;;4.73;65.27;101901.84;5009047;28;20088;-70
2021/03/02 03:51:04;;;;;;;6.00;3.58;;;;;;;4.52;67.15;101899.41;5009316;28;20580;-69
2021/03/02 03:53:33;;;;;;;10.02;5.15;;;;;;;4.38;66.74;101910.59;5009158;28;20124;-69
2021/03/02 03:55:59;;;;;;;8.10;4.97;;;;;;;4.10;68.34;101905.03;5009380;28;20080;-69
2021/03/02 03:58:29;;;;;;;5.78;3.70;;;;;;;3.96;68.44;101909.19;5007661;28;20041;-69
2021/03/02 04:00:55;;;;;;;5.60;3.72;;;;;;;3.85;70.10;101903.63;5009077;28;20088;-69
2021/03/02 04:03:23;;;;;;;7.75;4.43;;;;;;;3.95;68.26;101911.88;5008093;28;20120;-69
2021/03/02 04:05:49;;;;;;;7.40;3.50;;;;;;;3.85;69.73;101908.88;5006184;28;20057;-69
2021/03/02 04:08:18;;;;;;;7.20;3.75;;;;;;;3.89;68.72;101906.97;5007931;28;20062;-69
2021/03/02 04:10:44;;;;;;;5.82;3.70;;;;;;;3.88;69.83;101913.94;5009393;28;20057;-70
2021/03/02 04:13:14;;;;;;;8.27;4.40;;;;;;;3.91;68.88;101911.19;5007146;28;20497;-70
2021/03/02 04:15:40;;;;;;;6.90;4.07;;;;;;;3.84;70.24;101917.66;5009239;28;20037;-69
2021/03/02 04:18:13;;;;;;;6.70;3.65;;;;;;;3.68;70.59;101914.06;5006733;28;20026;-70
2021/03/02 04:20:40;;;;;;;7.07;3.75;;;;;;;3.66;71.12;101918.53;5008955;28;20036;-70
2021/03/02 04:23:05;;;;;;;5.28;2.95;;;;;;;3.64;70.19;101915.13;5009130;28;20038;-69
2021/03/02 04:25:31;;;;;;;7.68;4.43;;;;;;;3.66;68.92;101913.28;5009217;28;20088;-70
2021/03/02 04:27:58;;;;;;;6.22;3.42;;;;;;;3.50;71.74;101916.59;5008758;28;20038;-69
2021/03/02 04:30:24;;;;;;;6.40;4.03;;;;;;;3.57;71.67;101923.25;5008313;28;20033;-69
2021/03/02 04:32:49;;;;;;;7.80;4.60;;;;;;;3.54;69.31;101918.16;5009373;28;20033;-70
2021/03/02 04:35:15;;;;;;;7.65;4.88;;;;;;;3.43;70.29;101916.97;5009068;28;20402;-69
2021/03/02 04:37:40;;;;;;;7.32;3.83;;;;;;;3.31;70.76;101927.09;5008831;28;20506;-70
2021/03/02 04:40:06;;;;;;;8.55;4.55;;;;;;;3.30;71.09;101924.56;5008227;28;20049;-69
2021/03/02 04:42:32;;;;;;;6.15;3.97;;;;;;;3.24;71.85;101928.28;5009106;28;20053;-69
2021/03/02 04:44:57;;;;;;;5.78;3.50;;;;;;;3.15;73.43;101926.94;5008910;28;20034;-69
2021/03/02 04:47:23;;;;;;;8.00;3.92;;;;;;;3.02;72.85;101930.16;5008308;28;20031;-69
2021/03/02 04:49:49;;;;;;;8.02;4.25;;;;;;;2.92;72.62;101933.19;5007016;28;20096;-69
2021/03/02 04:52:16;;;;;;;7.45;4.60;;;;;;;2.67;74.29;101938.66;5006819;28;20042;-69
2021/03/02 04:54:41;;;;;;;7.28;4.43;;;;;;;2.58;74.10;101941.66;5008724;28;20121;-69
2021/03/02 04:57:07;;;;;;;8.90;5.03;;;;;;;2.47;74.81;101942.09;5007247;28;20587;-69
2021/03/02 04:59:32;;;;;;;6.70;4.18;;;;;;;2.55;73.20;101942.63;5008218;28;20060;-70
2021/03/02 05:01:57;;;;;;;7.20;4.40;;;;;;;2.56;72.57;101943.47;5007392;28;20030;-69
2021/03/02 05:04:22;;;;;;;6.47;4.18;;;;;;;2.55;75.98;101941.75;5007723;28;20057;-69
2021/03/02 05:06:48;;;;;;;7.35;4.07;;;;;;;2.46;74.94;101944.78;5007833;28;20098;-70
2021/03/02 05:09:13;;;;;;;8.35;4.40;;;;;;;2.39;74.60;101941.59;5010583;28;20088;-69
2021/03/02 05:11:38;;;;;;;8.40;4.18;;;;;;;2.37;74.63;101942.56;5008477;28;20383;-69
2021/03/02 05:14:04;;;;;;;7.88;4.80;;;;;;;2.41;72.96;101944.09;5008718;28;20049;-69
2021/03/02 05:16:29;;;;;;;6.30;3.70;;;;;;;2.36;75.64;101936.50;5009573;28;20057;-69
2021/03/02 05:18:54;;;;;;;8.80;5.03;;;;;;;2.39;73.55;101936.34;5011763;28;20125;-69
2021/03/02 05:21:20;;;;;;;8.80;4.68;;;;;;;2.24;76.35;101939.59;5012679;28;20531;-69
2021/03/02 05:23:45;;;;;;;5.63;3.13;;;;;;;2.19;75.97;101938.94;5011551;28;20045;-69
2021/03/02 05:26:10;;;;;;;8.60;4.97;;;;;;;2.19;74.68;101947.59;5011964;28;20490;-70
2021/03/02 05:28:36;;;;;;;6.57;4.05;;;;;;;2.13;75.03;101947.88;5011310;28;20101;-69
2021/03/02 05:31:01;;;;;;;11.27;6.30;;;;;;;2.17;74.26;101953.81;5011541;28;20081;-69
2021/03/02 05:33:26;;;;;;;9.70;5.68;;;;;;;2.08;74.69;101945.44;5018069;28;20486;-69
2021/03/02 05:35:51;;;;;;;8.73;4.75;;;;;;;2.07;76.58;101950.72;5010201;28;20300;-69
2021/03/02 05:38:17;;;;;;;8.82;5.20;;;;;;;1.97;75.25;101952.84;5011335;28;20061;-70
2021/03/02 05:40:42;;;;;;;8.70;5.10;;;;;;;1.83;76.04;101949.94;5011591;28;20049;-69
2021/03/02 05:43:09;;;;;;;9.45;5.00;;;;;;;1.85;74.49;101954.19;5011395;28;20038;-69
2021/03/02 05:45:34;;;;;;;8.18;4.80;;;;;;;1.84;76.41;101954.25;5009889;28;20084;-69
2021/03/02 05:48:00;;;;;;;11.50;7.05;;;;;;;1.95;74.55;101953.81;5011293;28;20034;-69
2021/03/02 05:50:26;;;;;;;8.05;4.68;;;;;;;1.82;76.70;101951.69;5009231;28;20037;-70
2021/03/02 05:52:55;;;;;;;6.68;4.13;;;;;;;1.76;76.39;101951.09;5011292;28;20045;-70
2021/03/02 05:55:21;;;;;;;9.57;5.50;;;;;;;1.72;76.37;101946.91;5011109;28;20041;-69
2021/03/02 05:57:48;;;;;;;12.10;6.13;;;;;;;1.80;75.58;101955.28;5011056;28;20041;-69
2021/03/02 06:00:14;;;;;;;12.38;5.13;;;;;;;1.69;77.82;101959.16;5010834;28;20049;-69
2021/03/02 06:02:39;;;;;;;9.55;5.68;;;;;;;1.64;77.72;101953.25;5011166;28;20058;-69
2021/03/02 06:05:05;;;;;;;11.10;6.25;;;;;;;1.39;77.56;101958.56;5010705;28;20411;-69
2021/03/02 06:07:30;;;;;;;9.00;4.93;;;;;;;1.35;76.92;101958.75;5010645;28;20052;-69
2021/03/02 06:09:57;;;;;;;9.35;5.40;;;;;;;1.37;78.09;101960.38;5005586;28;20046;-70
2021/03/02 06:12:22;;;;;;;11.35;5.07;;;;;;;1.51;76.01;101961.63;5006455;28;20536;-70
2021/03/02 06:14:47;;;;;;;9.18;4.50;;;;;;;1.50;77.43;101971.19;5011086;28;20038;-70
2021/03/02 06:17:12;;;;;;;12.07;6.47;;;;;;;1.26;78.34;101967.72;5010656;28;20037;-69
2021/03/02 06:19:39;;;;;;;11.07;5.45;;;;;;;1.15;78.14;101977.72;5010135;28;20426;-69
2021/03/02 06:22:05;;;;;;;10.13;5.20;;;;;;;1.11;78.18;101978.72;5010916;28;20221;-74
2021/03/02 06:24:35;;;;;;;12.23;6.18;;;;;;;1.27;76.88;101979.88;5010558;28;20513;-69
2021/03/02 06:27:13;;;;;;;13.60;6.67;;;;;;;1.30;79.13;101978.91;5009124;28;20030;-69
2021/03/02 06:29:39;;;;;;;11.20;5.60;;;;;;;1.32;79.42;101990.13;5009425;28;20480;-69
2021/03/02 06:32:05;;;;;;;10.02;5.38;;;;;;;1.34;79.59;101986.56;5008913;28;20034;-69
2021/03/02 06:34:31;;;;;;;8.70;5.00;;;;;;;1.39;79.85;101992.44;5021519;28;20379;-69
2021/03/02 06:37:02;;;;;;;9.90;5.53;;;;;;;1.41;78.91;101984.59;5009454;28;20037;-70
2021/03/02 06:39:28;;;;;;;10.63;6.10;;;;;;;1.46;78.70;101988.72;5008874;28;20038;-69
2021/03/02 06:42:22;;;;;;;8.35;5.18;;;;;;;1.59;78.35;101988.25;5010897;28;20049;-69
2021/03/02 06:44:53;;;;;;;8.70;5.03;;;;;;;1.70;78.43;101994.75;5009036;28;20065;-69
2021/03/02 06:47:35;;;;;;;9.45;4.78;;;;;;;1.81;77.63;102002.19;5014414;28;20315;-69
2021/03/02 06:50:20;;;;;;;7.88;5.28;;;;;;;1.88;77.49;101985.38;5002092;28;20445;-69
2021/03/02 06:52:46;;;;;;;9.63;5.30;;;;;;;1.95;78.25;101998.16;5001942;28;20041;-69
2021/03/02 06:55:26;;;;;;;13.43;7.32;;;;;;;1.85;78.25;102003.75;5009056;28;20033;-69
2021/03/02 06:58:12;;;;;;;10.27;5.75;;;;;;;1.99;78.08;102000.59;5009943;28;20527;-69
2021/03/02 07:00:37;;;;;;;9.07;5.30;;;;;;;2.15;77.94;101994.78;4990455;28;20066;-69
2021/03/02 07:03:03;;;;;;;10.95;5.72;;;;;;;2.36;77.70;102006.09;4998462;28;20518;-69
2021/03/02 07:05:28;;;;;;;11.32;6.43;;;;;;;2.68;76.33;102005.63;5008747;28;20066;-69
2021/03/02 07:07:56;;;;;;;9.90;5.50;;;;;;;3.07;76.15;102002.22;5010236;28;20375;-70
2021/03/02 07:10:23;;;;;;;11.30;6.18;;;;;;;3.88;75.08;102009.91;5027346;28;20136;-69
2021/03/02 07:12:51;;;;;;;7.10;3.78;;;;;;;4.62;72.59;102009.81;5018988;28;20077;-69
2021/03/02 07:15:17;;;;;;;11.35;6.95;;;;;;;5.50;71.28;102012.22;5010309;28;20034;-70
2021/03/02 07:17:44;;;;;;;8.38;4.97;;;;;;;6.07;69.74;102017.03;5008919;28;20034;-69
2021/03/02 07:20:12;;;;;;;9.02;4.88;;;;;;;6.97;69.62;102017.97;5008047;28;20049;-70
2021/03/02 07:22:39;;;;;;;8.55;4.50;;;;;;;7.82;68.39;102027.66;5009021;28;20128;-70
2021/03/02 07:25:08;;;;;;;8.88;4.22;;;;;;;8.49;66.05;102022.47;5008445;28;20030;-71
2021/03/02 07:27:39;;;;;;;13.52;6.20;;;;;;;9.17;59.35;102024.97;5008407;28;20037;-71
2021/03/02 07:30:05;;;;;;;9.45;4.97;;;;;;;9.20;60.96;102023.00;5009904;28;20030;-72
2021/03/02 07:32:31;;;;;;;7.47;4.43;;;;;;;9.54;60.20;102031.19;5009307;28;20049;-71
2021/03/02 07:34:57;;;;;;;13.15;6.05;;;;;;;10.35;58.70;102027.16;4996516;28;20027;-71
2021/03/02 07:37:24;;;;;;;11.00;5.70;;;;;;;10.62;56.85;102032.19;4990150;28;20041;-71
2021/03/02 07:39:59;;;;;;;4.95;3.08;;;;;;;10.02;56.39;102035.72;5004771;28;20156;-71
2021/03/02 07:42:24;;;;;;;8.85;4.15;;;;;;;9.18;54.52;102038.09;5007453;28;20096;-71
2021/03/02 07:45:28;;;;;;;7.18;4.72;;;;;;;8.26;59.82;102039.75;5009918;28;20038;-71
2021/03/02 07:47:56;;;;;;;5.28;3.47;;;;;;;7.80;60.02;102034.81;4997362;28;20042;-71
2021/03/02 07:50:24;;;;;;;10.75;6.30;;;;;;;7.70;60.81;102036.34;5009545;28;20037;-71
2021/03/02 07:53:19;;;;;;;10.40;6.10;;;;;;;7.36;61.39;102041.03;5009627;28;20042;-71
2021/03/02 07:55:45;;;;;;;9.88;6.53;;;;;;;7.22;61.25;102043.66;5010037;28;20272;-71
2021/03/02 07:58:21;;;;;;;12.43;7.32;;;;;;;7.07;61.04;102039.31;5008565;28;20354;-71
2021/03/02 08:00:50;;;;;;;12.68;7.50;;;;;;;6.82;61.39;102038.16;5008109;28;20046;-71
2021/03/02 08:03:25;;;;;;;12.15;6.57;;;;;;;6.54;61.95;102042.38;5009351;28;20046;-71
2021/03/02 08:05:55;;;;;;;8.65;5.45;;;;;;;6.36;62.49;102038.16;5008079;28;20259;-71
2021/03/02 08:08:23;;;;;;;10.35;6.00;;;;;;;6.31;63.08;102048.94;5007138;28;20076;-71
2021/03/02 08:10:56;;;;;;;8.93;5.32;;;;;;;6.26;63.29;102040.47;5009519;28;20136;-71
2021/03/02 08:13:43;;;;;;;12.32;6.43;;;;;;;6.25;63.60;102045.84;5009835;28;20116;-71
2021/03/02 08:16:15;;;;;;;9.93;6.20;;;;;;;6.27;63.37;102049.19;5008671;28;20041;-71
2021/03/02 08:18:42;;;;;;;10.02;6.18;;;;;;;6.30;63.59;102049.88;5009136;28;20037;-71
2021/03/02 08:21:12;;;;;;;11.13;5.80;;;;;;;6.32;64.45;102045.38;5009207;28;20044;-70
2021/03/02 08:23:54;;;;;;;10.43;5.80;;;;;;;6.44;63.84;102038.59;5009435;28;20386;-71
2021/03/02 08:26:21;;;;;;;12.73;7.78;;;;;;;6.54;63.76;102042.38;5007726;28;20034;-71
2021/03/02 08:29:09;;;;;;;12.27;6.63;;;;;;;6.57;63.86;102042.19;5009106;28;20402;-71
2021/03/02 08:31:37;;;;;;;9.70;6.18;;;;;;;6.49;64.80;102043.59;5009048;28;20388;-70
2021/03/02 08:34:05;;;;;;;9.52;6.15;;;;;;;6.56;65.40;102045.75;5026088;28;20434;-71
2021/03/02 08:36:31;;;;;;;10.60;6.32;;;;;;;6.84;64.73;102046.81;5018044;28;20641;-71
2021/03/02 08:38:56;;;;;;;10.40;6.28;;;;;;;7.56;63.27;102052.13;5008866;28;20072;-71
2021/03/02 08:41:33;;;;;;;11.27;6.93;;;;;;;9.08;60.02;102052.84;5008452;28;20060;-71
2021/03/02 08:43:59;;;;;;;10.68;6.65;;;;;;;10.63;58.48;102057.69;4991134;28;20041;-71
2021/03/02 08:46:27;;;;;;;11.02;7.20;;;;;;;12.29;54.02;102058.84;5007139;28;20022;-71
2021/03/02 08:48:53;;;;;;;9.48;6.57;;;;;;;13.53;51.41;102070.63;4997286;28;20031;-71
2021/03/02 08:51:23;;;;;;;11.60;7.25;;;;;;;14.67;46.81;102063.19;4983354;28;20041;-71
2021/03/02 08:53:51;;;;;;;13.85;7.70;;;;;;;15.31;44.19;102070.50;4988368;28;20034;-72
2021/03/02 08:56:17;;;;;;;10.90;7.95;;;;;;;15.96;43.05;102072.38;4992746;28;20122;-71
2021/03/02 08:58:44;;;;;;;10.07;7.32;;;;;;;16.35;43.02;102068.47;4992563;28;20519;-71
2021/03/02 09:01:11;;;;;;;9.00;5.43;;;;;;;17.14;42.89;102066.78;4991831;28;20081;-71
2021/03/02 09:03:39;;;;;;;11.18;7.68;;;;;;;17.81;38.92;102077.69;4991842;28;20121;-71
2021/03/02 09:06:19;;;;;;;11.38;6.40;;;;;;;18.20;38.45;102068.25;4992694;28;20100;-73
2021/03/02 09:08:45;;;;;;;9.82;6.80;;;;;;;19.05;37.62;102068.00;4992541;28;20353;-70
2021/03/02 09:11:11;;;;;;;10.25;6.15;;;;;;;19.71;37.05;102072.19;4992813;28;20751;-70
2021/03/02 09:13:37;;;;;;;7.78;5.50;;;;;;;20.25;35.62;102078.59;4992888;28;20041;-70
2021/03/02 09:16:20;;;;;;;8.13;5.80;;;;;;;20.84;35.93;102070.78;4992281;28;20026;-70
2021/03/02 09:19:14;;;;;;;7.65;5.22;;;;;;;21.47;35.06;102076.72;5003146;28;20073;-70
2021/03/02 09:21:45;;;;;;;8.55;6.40;;;;;;;21.70;32.64;102078.47;4992176;28;20077;-70
2021/03/02 09:24:14;;;;;;;10.60;7.50;;;;;;;21.82;31.16;102082.34;5009558;28;20021;-70
2021/03/02 09:26:40;;;;;;;7.93;5.32;;;;;;;20.95;31.95;102081.13;5000684;28;20041;-70
2021/03/02 09:29:09;;;;;;;7.63;6.20;;;;;;;20.68;30.64;102082.50;5006176;28;20391;-70
2021/03/02 09:31:35;;;;;;;8.45;6.50;;;;;;;21.12;32.22;102084.47;4992433;28;20089;-70
2021/03/02 09:34:01;;;;;;;10.05;5.72;;;;;;;21.61;31.98;102085.81;5026847;28;20030;-70
2021/03/02 09:36:29;;;;;;;10.02;6.88;;;;;;;20.29;30.35;102079.94;5031431;28;20034;-70
2021/03/02 09:38:56;;;;;;;14.50;7.03;;;;;;;20.61;32.07;102088.78;5018748;28;20058;-70
2021/03/02 09:41:39;;;;;;;10.55;7.43;;;;;;;20.17;32.40;102081.34;5011948;28;20058;-70
2021/03/02 09:44:24;;;;;;;13.15;8.27;;;;;;;19.28;33.30;102085.03;5011339;28;20566;-70
2021/03/02 09:46:51;;;;;;;11.88;8.85;;;;;;;18.13;34.25;102085.97;5011132;28;20038;-69
2021/03/02 09:49:55;;;;;;;14.57;8.55;;;;;;;16.79;36.57;102080.22;5010477;28;20034;-70
2021/03/02 09:52:20;;;;;;;14.27;8.50;;;;;;;15.80;38.56;102068.53;4961520;28;20047;-70
2021/03/02 09:55:05;;;;;;;12.13;7.67;;;;;;;14.82;40.77;102077.75;4994188;28;20371;-69
2021/03/02 09:57:31;;;;;;;12.15;7.45;;;;;;;14.23;41.31;102076.88;4991921;28;20113;-69
2021/03/02 09:59:56;;;;;;;12.23;8.25;;;;;;;13.75;43.76;102077.56;4990860;28;20122;-69
2021/03/02 10:02:21;;;;;;;13.10;8.48;;;;;;;13.37;44.28;102079.06;4990650;28;20065;-70
2021/03/02 10:04:47;;;;;;;11.45;7.85;;;;;;;13.08;45.09;102074.41;4990851;28;20044;-71
2021/03/02 10:07:12;;;;;;;17.38;9.48;;;;;;;13.01;44.86;102081.22;4990490;28;20432;-70
2021/03/02 10:09:46;;;;;;;14.63;9.85;;;;;;;12.24;47.11;102079.59;5002151;28;20507;-70
2021/03/02 10:12:14;;;;;;;12.88;7.72;;;;;;;11.98;48.10;102086.16;4995275;28;20650;-72
2021/03/02 10:14:41;;;;;;;10.05;5.93;;;;;;;11.84;49.12;102095.19;4991186;28;20049;-71
2021/03/02 10:17:07;;;;;;;12.63;7.10;;;;;;;12.01;50.25;102092.09;4989824;28;20487;-70
2021/03/02 10:19:34;;;;;;;16.80;9.73;;;;;;;12.13;51.06;102094.69;5002786;28;20061;-71
2021/03/02 10:22:01;;;;;;;13.57;9.10;;;;;;;12.24;50.37;102084.06;5009119;28;20045;-70
2021/03/02 10:24:37;;;;;;;13.18;8.15;;;;;;;12.57;49.78;102087.59;5009586;28;20034;-71
2021/03/02 10:27:19;;;;;;;16.90;10.05;;;;;;;12.69;48.80;102091.88;4989995;28;20041;-71
2021/03/02 10:29:46;;;;;;;14.27;8.65;;;;;;;12.57;48.83;102093.75;4987867;28;20037;-70
2021/03/02 10:32:12;;;;;;;12.18;7.07;;;;;;;12.67;48.21;102099.97;5004410;28;20035;-71
2021/03/02 10:34:38;;;;;;;14.20;9.45;;;;;;;12.85;47.47;102100.25;4989046;28;20053;-71
2021/03/02 10:37:09;;;;;;;13.18;8.05;;;;;;;12.42;47.65;102093.19;5009374;28;20029;-71
2021/03/02 10:39:35;;;;;;;12.13;8.02;;;;;;;12.26;48.24;102100.72;5009389;28;20049;-71
2021/03/02 10:42:02;;;;;;;9.82;6.85;;;;;;;12.41;49.34;102102.09;5009765;28;20030;-71
2021/03/02 10:44:27;;;;;;;12.68;8.43;;;;;;;12.31;49.40;102093.22;5009682;28;20423;-71
2021/03/02 10:46:53;;;;;;;13.55;9.10;;;;;;;12.51;48.11;102100.41;5014421;28;20064;-70
2021/03/02 10:49:18;;;;;;;13.60;8.88;;;;;;;12.60;47.76;102101.44;5013845;28;20046;-71
2021/03/02 10:51:44;;;;;;;12.73;8.35;;;;;;;12.60;47.52;102106.75;5004070;28;20053;-71
2021/03/02 10:54:10;;;;;;;12.75;8.50;;;;;;;12.58;47.97;102100.72;5006072;28;20041;-71
2021/03/02 10:56:35;;;;;;;14.93;10.07;;;;;;;12.30;49.48;102096.84;5008971;28;20083;-71
2021/03/02 10:59:01;;;;;;;18.90;10.43;;;;;;;12.29;49.19;102098.63;4984965;28;695961;-71
2021/03/02 11:01:27;;;;;;;15.73;10.00;;;;;;;12.26;47.98;102098.91;5009930;28;20280;-71
2021/03/02 11:03:52;;;;;;;15.63;9.85;;;;;;;12.30;47.97;102102.16;5009870;28;20030;-70
2021/03/02 11:06:20;;;;;;;13.50;7.80;;;;;;;12.17;48.08;102096.97;5009458;28;20080;-71
2021/03/02 11:08:48;;;;;;;12.10;8.30;;;;;;;12.19;48.82;102107.47;5008015;28;20389;-71
2021/03/02 11:11:15;;;;;;;11.52;7.47;;;;;;;12.15;48.46;102100.72;5009871;28;20486;-71
2021/03/02 11:13:42;;;;;;;15.02;8.80;;;;;;;12.22;48.66;102096.63;5009109;28;20037;-71
2021/03/02 11:16:07;;;;;;;14.13;9.20;;;;;;;12.24;48.46;102089.38;5009089;28;20056;-71
2021/03/02 11:18:32;;;;;;;11.65;7.95;;;;;;;12.15;49.88;102092.78;4997004;28;20581;-71
2021/03/02 11:20:58;;;;;;;13.05;8.68;;;;;;;12.25;48.85;102083.97;4971069;28;20042;-70
2021/03/02 11:23:24;;;;;;;14.98;8.55;;;;;;;12.35;48.37;102089.34;4983792;28;20305;-71
2021/03/02 11:25:49;;;;;;;12.32;8.02;;;;;;;12.28;48.25;102082.88;4990081;28;20045;-70
2021/03/02 11:28:15;;;;;;;12.13;8.45;;;;;;;12.24;48.06;102079.59;4996635;28;20398;-70
2021/03/02 11:30:41;;;;;;;14.60;9.15;;;;;;;12.38;48.04;102081.13;5002124;28;20038;-70
2021/03/02 11:33:07;;;;;;;14.45;9.43;;;;;;;12.45;47.55;102078.84;4996250;28;20173;-70
2021/03/02 11:35:33;;;;;;;11.68;7.32;;;;;;;12.39;47.86;102074.84;5004977;28;20487;-69